createdAt,value
2024-02-23T00:01:49.749Z,4.30
2024-02-23T00:04:17.243Z,4.30
2024-02-23T00:06:44.190Z,4.40
2024-02-23T00:09:11.372Z,4.30
2024-02-23T00:11:45.553Z,4.30
2024-02-23T00:14:14.188Z,4.40
2024-02-23T00:16:42.144Z,4.40
2024-02-23T00:19:12.340Z,4.40
2024-02-23T00:21:40.023Z,4.50
2024-02-23T00:24:07.985Z,4.50
2024-02-23T00:26:34.970Z,4.50
2024-02-23T00:29:01.867Z,4.40
2024-02-23T00:31:28.764Z,4.40
2024-02-23T00:33:55.733Z,4.40
2024-02-23T00:36:22.706Z,4.40
2024-02-23T00:38:49.572Z,4.40
2024-02-23T00:41:16.449Z,4.40
2024-02-23T00:43:43.398Z,4.40
2024-02-23T00:46:10.675Z,4.40
2024-02-23T00:48:37.804Z,4.30
2024-02-23T00:51:05.215Z,4.30
2024-02-23T00:53:33.309Z,4.20
2024-02-23T00:56:00.368Z,4.20
2024-02-23T00:58:27.416Z,4.10
2024-02-23T01:00:54.461Z,4.10
2024-02-23T01:03:21.447Z,4.10
2024-02-23T01:05:48.572Z,4.10
2024-02-23T01:08:15.611Z,4.00
2024-02-23T01:10:42.768Z,4.00
2024-02-23T01:13:09.802Z,4.00
2024-02-23T01:15:36.799Z,4.10
2024-02-23T01:18:07.081Z,4.00
2024-02-23T01:20:33.989Z,4.10
2024-02-23T01:23:01.503Z,4.00
2024-02-23T01:25:28.383Z,4.10
2024-02-23T01:27:55.323Z,4.00
2024-02-23T01:30:22.194Z,4.00
2024-02-23T01:32:51.176Z,4.00
2024-02-23T01:35:18.293Z,4.00
2024-02-23T01:37:45.272Z,4.00
2024-02-23T01:40:12.478Z,3.90
2024-02-23T01:42:39.697Z,3.90
2024-02-23T01:45:08.111Z,3.90
2024-02-23T01:47:35.147Z,3.80
2024-02-23T01:50:02.968Z,3.80
2024-02-23T01:52:30.809Z,3.70
2024-02-23T01:54:58.005Z,3.60
2024-02-23T01:57:39.936Z,3.60
2024-02-23T02:00:17.730Z,3.50
2024-02-23T02:02:45.959Z,3.40
2024-02-23T02:05:13.569Z,3.30
2024-02-23T02:07:45.666Z,3.30
2024-02-23T02:10:13.532Z,3.20
2024-02-23T02:12:40.431Z,3.10
2024-02-23T02:15:08.139Z,3.00
2024-02-23T02:17:38.116Z,2.90
2024-02-23T02:20:08.166Z,2.90
2024-02-23T02:22:35.302Z,2.90
2024-02-23T02:25:02.487Z,3.00
2024-02-23T02:27:29.734Z,3.00
2024-02-23T02:29:59.614Z,3.00
2024-02-23T02:32:26.632Z,3.00
2024-02-23T02:34:53.651Z,3.00
2024-02-23T02:37:20.532Z,3.10
2024-02-23T02:39:47.400Z,3.10
2024-02-23T02:42:14.523Z,3.20
2024-02-23T02:44:41.432Z,3.20
2024-02-23T02:47:08.524Z,3.30
2024-02-23T02:49:35.517Z,3.30
2024-02-23T02:52:02.870Z,3.30
2024-02-23T02:54:29.786Z,3.40
2024-02-23T02:56:56.676Z,3.40
2024-02-23T02:59:28.419Z,3.40
2024-02-23T03:01:56.424Z,3.40
2024-02-23T03:04:23.418Z,3.40
2024-02-23T03:06:50.331Z,3.40
2024-02-23T03:09:17.221Z,3.40
2024-02-23T03:11:44.252Z,3.40
2024-02-23T03:14:11.423Z,3.40
2024-02-23T03:16:38.710Z,3.40
2024-02-23T03:19:05.877Z,3.40
2024-02-23T03:21:32.818Z,3.40
2024-02-23T03:23:59.675Z,3.30
2024-02-23T03:26:26.671Z,3.30
2024-02-23T03:28:53.678Z,3.30
2024-02-23T03:31:20.653Z,3.20
2024-02-23T03:33:47.592Z,3.00
2024-02-23T03:36:14.517Z,2.90
2024-02-23T03:38:41.609Z,2.90
2024-02-23T03:41:08.584Z,2.80
2024-02-23T03:43:35.947Z,2.80
2024-02-23T03:46:02.882Z,2.80
2024-02-23T03:48:29.778Z,2.70
2024-02-23T03:50:56.991Z,2.70
2024-02-23T03:53:23.945Z,2.60
2024-02-23T03:55:50.866Z,2.50
2024-02-23T03:58:17.873Z,2.50
2024-02-23T04:00:45.117Z,2.40
2024-02-23T04:03:12.145Z,2.30
2024-02-23T04:05:39.180Z,2.30
2024-02-23T04:08:06.819Z,2.30
2024-02-23T04:10:33.942Z,2.20
2024-02-23T04:13:02.301Z,2.20
2024-02-23T04:15:29.292Z,2.20
2024-02-23T04:17:56.272Z,2.10
2024-02-23T04:20:23.441Z,2.10
2024-02-23T04:22:50.403Z,2.10
2024-02-23T04:25:17.372Z,2.00
2024-02-23T04:27:44.663Z,2.00
2024-02-23T04:30:13.129Z,2.00
2024-02-23T04:32:40.676Z,2.00
2024-02-23T04:35:08.225Z,1.90
2024-02-23T04:37:36.886Z,2.00
2024-02-23T04:40:07.890Z,2.00
2024-02-23T04:42:34.864Z,1.90
2024-02-23T04:45:01.734Z,1.90
2024-02-23T04:47:28.811Z,1.90
2024-02-23T04:49:55.803Z,2.00
2024-02-23T04:52:22.739Z,1.90
2024-02-23T04:54:49.690Z,1.90
2024-02-23T04:57:16.635Z,1.90
2024-02-23T04:59:43.946Z,1.90
2024-02-23T05:02:10.935Z,1.90
2024-02-23T05:04:38.084Z,1.90
2024-02-23T05:07:05.591Z,1.80
2024-02-23T05:09:33.367Z,1.80
2024-02-23T05:12:00.697Z,1.90
2024-02-23T05:14:28.160Z,1.90
2024-02-23T05:16:55.124Z,1.90
2024-02-23T05:19:22.368Z,1.90
2024-02-23T05:21:49.306Z,1.90
2024-02-23T05:24:16.386Z,1.90
2024-02-23T05:26:45.305Z,1.80
2024-02-23T05:29:13.991Z,1.80
2024-02-23T05:31:50.037Z,1.80
2024-02-23T05:34:17.039Z,1.90
2024-02-23T05:36:44.438Z,1.90
2024-02-23T05:39:11.856Z,1.90
2024-02-23T05:41:38.935Z,1.90
2024-02-23T05:44:07.431Z,1.80
2024-02-23T05:46:36.220Z,1.80
2024-02-23T05:49:05.410Z,1.60
2024-02-23T05:51:32.811Z,1.50
2024-02-23T05:54:00.071Z,1.50
2024-02-23T05:56:27.069Z,1.40
2024-02-23T05:58:54.395Z,1.40
2024-02-23T06:01:21.597Z,1.40
2024-02-23T06:03:48.467Z,1.40
2024-02-23T06:06:16.033Z,1.40
2024-02-23T06:08:43.103Z,1.30
2024-02-23T06:11:11.666Z,1.40
2024-02-23T06:13:39.067Z,1.30
2024-02-23T06:16:12.054Z,1.30
2024-02-23T06:18:42.438Z,1.20
2024-02-23T06:21:15.007Z,1.20
2024-02-23T06:23:42.850Z,1.10
2024-02-23T06:26:09.947Z,1.10
2024-02-23T06:28:38.303Z,1.00
2024-02-23T06:31:06.634Z,1.00
2024-02-23T06:33:33.755Z,1.00
2024-02-23T06:36:01.125Z,0.90
2024-02-23T06:38:29.811Z,1.00
2024-02-23T06:40:57.610Z,1.00
2024-02-23T06:43:24.579Z,0.90
2024-02-23T06:45:52.325Z,0.90
2024-02-23T06:48:19.952Z,0.90
2024-02-23T06:50:47.208Z,0.90
2024-02-23T06:53:14.324Z,0.90
2024-02-23T06:55:42.843Z,0.90
2024-02-23T06:58:11.570Z,1.00
2024-02-23T07:00:39.803Z,1.10
2024-02-23T07:03:06.716Z,1.10
2024-02-23T07:05:33.987Z,1.20
2024-02-23T07:08:01.260Z,1.30
2024-02-23T07:10:28.584Z,1.50
2024-02-23T07:12:56.935Z,1.70
2024-02-23T07:15:23.977Z,1.80
2024-02-23T07:17:50.941Z,2.00
2024-02-23T07:20:20.918Z,2.20
2024-02-23T07:22:48.407Z,2.40
2024-02-23T07:25:21.945Z,2.50
2024-02-23T07:27:50.192Z,2.60
2024-02-23T07:30:17.908Z,2.70
2024-02-23T07:32:51.267Z,2.80
2024-02-23T07:35:20.914Z,2.80
2024-02-23T07:37:48.062Z,3.00
2024-02-23T07:40:22.604Z,3.10
2024-02-23T07:42:49.897Z,3.20
2024-02-23T07:45:16.929Z,3.30
2024-02-23T07:47:43.997Z,3.30
2024-02-23T07:50:11.325Z,3.30
2024-02-23T07:52:39.797Z,3.20
2024-02-23T07:55:07.539Z,3.20
2024-02-23T07:57:35.799Z,3.30
2024-02-23T08:00:02.861Z,3.40
2024-02-23T08:02:29.849Z,3.50
2024-02-23T08:04:56.968Z,3.60
2024-02-23T08:07:24.313Z,3.70
2024-02-23T08:09:51.249Z,3.80
2024-02-23T08:12:21.455Z,3.90
2024-02-23T08:14:50.572Z,4.00
2024-02-23T08:17:17.706Z,4.10
2024-02-23T08:19:44.694Z,4.10
2024-02-23T08:22:11.632Z,4.10
2024-02-23T08:24:38.512Z,4.20
2024-02-23T08:27:05.758Z,4.30
2024-02-23T08:29:33.046Z,4.50
2024-02-23T08:32:00.039Z,4.70
2024-02-23T08:34:27.036Z,4.80
2024-02-23T08:36:54.043Z,4.90
2024-02-23T08:39:23.411Z,5.00
2024-02-23T08:41:52.640Z,5.00
2024-02-23T08:44:19.699Z,5.10
2024-02-23T08:46:46.629Z,5.10
2024-02-23T08:49:13.608Z,5.20
2024-02-23T08:51:41.200Z,5.40
2024-02-23T08:54:09.321Z,5.40
2024-02-23T08:56:43.914Z,5.60
2024-02-23T08:59:11.363Z,5.50
2024-02-23T09:01:38.448Z,5.60
2024-02-23T09:04:05.654Z,5.60
2024-02-23T09:06:37.763Z,5.70
2024-02-23T09:09:06.707Z,5.90
2024-02-23T09:11:33.724Z,6.10
2024-02-23T09:14:00.866Z,6.10
2024-02-23T09:16:28.084Z,6.20
2024-02-23T09:18:54.932Z,6.20
2024-02-23T09:21:22.277Z,6.20
2024-02-23T09:23:49.752Z,6.10
2024-02-23T09:26:17.190Z,6.20
2024-02-23T09:28:46.106Z,6.30
2024-02-23T09:31:13.059Z,6.50
2024-02-23T09:33:40.113Z,6.50
2024-02-23T09:36:07.335Z,6.60
2024-02-23T09:38:34.376Z,6.70
2024-02-23T09:41:02.129Z,6.80
2024-02-23T09:43:33.577Z,6.80
2024-02-23T09:46:01.741Z,6.80
2024-02-23T09:48:29.563Z,6.80
2024-02-23T09:50:58.943Z,6.80
2024-02-23T09:53:26.094Z,6.90
2024-02-23T09:55:54.784Z,7.20
2024-02-23T09:58:22.982Z,7.40
2024-02-23T10:00:51.151Z,7.70
2024-02-23T10:03:18.133Z,8.00
2024-02-23T10:05:47.074Z,7.90
2024-02-23T10:08:14.432Z,7.70
2024-02-23T10:10:43.019Z,7.50
2024-02-23T10:13:10.074Z,7.20
2024-02-23T10:15:37.122Z,7.00
2024-02-23T10:18:05.098Z,6.90
2024-02-23T10:20:32.801Z,6.60
2024-02-23T10:23:00.336Z,6.60
2024-02-23T10:25:27.314Z,6.70
2024-02-23T10:27:54.190Z,6.70
2024-02-23T10:30:21.176Z,6.90
2024-02-23T10:32:49.854Z,7.40
2024-02-23T10:35:21.526Z,7.70
2024-02-23T10:37:52.318Z,7.70
2024-02-23T10:40:27.814Z,7.80
2024-02-23T10:43:03.541Z,8.00
2024-02-23T10:45:30.926Z,8.10
2024-02-23T10:48:00.105Z,8.20
2024-02-23T10:50:27.805Z,8.40
2024-02-23T10:52:56.861Z,8.50
2024-02-23T10:55:27.916Z,8.60
2024-02-23T10:57:57.540Z,8.80
2024-02-23T11:00:26.781Z,8.70
2024-02-23T11:02:56.989Z,8.80
2024-02-23T11:05:26.047Z,9.10
2024-02-23T11:07:56.905Z,9.30
2024-02-23T11:10:29.129Z,9.30
2024-02-23T11:13:01.474Z,9.20
2024-02-23T11:15:30.244Z,9.00
2024-02-23T11:17:57.572Z,8.90
2024-02-23T11:20:30.325Z,8.70
2024-02-23T11:23:01.421Z,8.70
2024-02-23T11:25:28.763Z,8.40
2024-02-23T11:27:55.653Z,8.30
2024-02-23T11:30:22.654Z,8.10
2024-02-23T11:32:52.861Z,8.00
2024-02-23T11:35:20.517Z,7.90
2024-02-23T11:38:05.344Z,7.80
2024-02-23T11:40:32.770Z,7.70
2024-02-23T11:43:03.307Z,7.60
2024-02-23T11:45:32.450Z,7.80
2024-02-23T11:48:00.773Z,7.60
2024-02-23T11:50:28.104Z,7.70
2024-02-23T11:52:55.411Z,7.80
2024-02-23T11:55:23.842Z,7.90
2024-02-23T11:57:58.511Z,7.80
2024-02-23T12:00:32.400Z,7.80
2024-02-23T12:02:59.460Z,7.80
2024-02-23T12:05:26.538Z,7.80
2024-02-23T12:07:54.540Z,7.80
2024-02-23T12:10:22.285Z,7.60
2024-02-23T12:12:50.322Z,7.70
2024-02-23T12:15:17.473Z,7.60
2024-02-23T12:17:51.625Z,7.60
2024-02-23T12:20:19.284Z,7.60
2024-02-23T12:22:46.656Z,7.70
2024-02-23T12:25:14.587Z,7.80
2024-02-23T12:27:42.573Z,7.60
2024-02-23T12:30:19.028Z,7.70
2024-02-23T12:32:46.339Z,7.60
2024-02-23T12:35:14.371Z,7.60
2024-02-23T12:37:44.693Z,7.50
2024-02-23T12:40:13.714Z,7.40
2024-02-23T12:42:40.986Z,7.50
2024-02-23T12:45:08.395Z,7.50
2024-02-23T12:47:35.582Z,7.60
2024-02-23T12:50:03.053Z,7.60
2024-02-23T12:52:30.214Z,7.70
2024-02-23T12:54:57.087Z,7.80
2024-02-23T12:57:23.972Z,7.80
2024-02-23T12:59:50.841Z,7.80
2024-02-23T13:02:18.186Z,7.90
2024-02-23T13:04:49.942Z,7.90
2024-02-23T13:07:18.238Z,7.80
2024-02-23T13:09:45.974Z,7.70
2024-02-23T13:12:13.194Z,7.80
2024-02-23T13:14:40.329Z,7.70
2024-02-23T13:17:07.342Z,7.60
2024-02-23T13:19:34.282Z,7.70
2024-02-23T13:22:03.923Z,7.90
2024-02-23T13:24:30.879Z,8.00
2024-02-23T13:26:57.791Z,8.00
2024-02-23T13:29:24.690Z,8.20
2024-02-23T13:31:51.669Z,8.20
2024-02-23T13:34:19.547Z,8.10
2024-02-23T13:36:54.817Z,8.10
2024-02-23T13:39:21.947Z,8.10
2024-02-23T13:41:48.939Z,8.10
2024-02-23T13:44:16.443Z,8.20
2024-02-23T13:46:43.414Z,8.10
2024-02-23T13:49:11.060Z,8.10
2024-02-23T13:51:38.614Z,7.80
2024-02-23T13:54:06.280Z,7.40
2024-02-23T13:56:33.210Z,7.20
2024-02-23T13:59:06.600Z,7.10
2024-02-23T14:01:33.573Z,7.10
2024-02-23T14:04:00.693Z,7.10
2024-02-23T14:06:27.785Z,7.10
2024-02-23T14:08:54.779Z,7.10
2024-02-23T14:11:21.904Z,7.30
2024-02-23T14:13:51.039Z,7.20
2024-02-23T14:16:19.007Z,7.30
2024-02-23T14:18:45.896Z,7.50
2024-02-23T14:21:15.520Z,7.50
2024-02-23T14:23:42.707Z,7.50
2024-02-23T14:26:10.902Z,7.40
2024-02-23T14:28:37.880Z,7.40
2024-02-23T14:31:05.350Z,7.30
2024-02-23T14:33:33.424Z,7.30
2024-02-23T14:36:00.482Z,7.20
2024-02-23T14:38:27.618Z,7.10
2024-02-23T14:40:54.919Z,6.90
2024-02-23T14:43:21.846Z,6.70
2024-02-23T14:45:48.762Z,6.70
2024-02-23T14:48:15.915Z,6.80
2024-02-23T14:50:42.884Z,6.90
2024-02-23T14:53:09.908Z,7.00
2024-02-23T14:55:37.070Z,7.00
2024-02-23T14:58:04.683Z,7.00
2024-02-23T15:00:31.660Z,7.00
2024-02-23T15:02:58.712Z,7.00
2024-02-23T15:05:25.973Z,6.90
2024-02-23T15:07:53.152Z,6.90
2024-02-23T15:10:20.741Z,6.90
2024-02-23T15:12:47.714Z,7.00
2024-02-23T15:15:15.252Z,7.00
2024-02-23T15:17:43.524Z,7.00
2024-02-23T15:20:11.345Z,7.00
2024-02-23T15:22:43.375Z,7.10
2024-02-23T15:25:10.678Z,7.00
2024-02-23T15:27:38.431Z,7.00
2024-02-23T15:30:10.373Z,6.90
2024-02-23T15:32:38.510Z,6.90
2024-02-23T15:35:06.497Z,6.80
2024-02-23T15:37:34.302Z,6.70
2024-02-23T15:40:01.257Z,6.60
2024-02-23T15:42:28.280Z,6.60
2024-02-23T15:44:55.881Z,6.40
2024-02-23T15:47:23.782Z,6.40
2024-02-23T15:50:08.545Z,6.30
2024-02-23T15:52:38.165Z,6.30
2024-02-23T15:55:05.844Z,6.30
2024-02-23T15:57:32.984Z,6.30
2024-02-23T16:00:03.325Z,6.30
2024-02-23T16:02:31.949Z,6.20
2024-02-23T16:04:59.087Z,6.30
2024-02-23T16:07:26.099Z,6.10
2024-02-23T16:09:53.116Z,6.10
2024-02-23T16:12:20.134Z,6.00
2024-02-23T16:14:47.163Z,5.90
2024-02-23T16:17:14.135Z,5.80
2024-02-23T16:19:41.735Z,5.70
2024-02-23T16:22:08.695Z,5.70
2024-02-23T16:24:35.666Z,5.60
2024-02-23T16:27:03.605Z,5.60
2024-02-23T16:29:31.403Z,5.50
2024-02-23T16:31:59.169Z,5.50
2024-02-23T16:34:26.197Z,5.50
2024-02-23T16:36:53.142Z,5.50
2024-02-23T16:39:20.133Z,5.40
2024-02-23T16:41:47.244Z,5.20
2024-02-23T16:44:17.724Z,5.10
2024-02-23T16:46:44.826Z,5.00
2024-02-23T16:49:11.811Z,4.90
2024-02-23T16:51:38.821Z,4.80
2024-02-23T16:54:06.044Z,4.70
2024-02-23T16:56:33.035Z,4.70
2024-02-23T16:58:59.977Z,4.60
2024-02-23T17:01:27.140Z,4.50
2024-02-23T17:03:54.112Z,4.40
2024-02-23T17:06:21.108Z,4.50
2024-02-23T17:08:53.579Z,4.30
2024-02-23T17:11:21.135Z,4.20
2024-02-23T17:13:48.792Z,4.20
2024-02-23T17:16:15.774Z,4.00
2024-02-23T17:18:42.793Z,3.90
2024-02-23T17:21:13.956Z,3.90
2024-02-23T17:23:40.969Z,3.90
2024-02-23T17:26:07.987Z,4.00
2024-02-23T17:28:35.041Z,3.90
2024-02-23T17:31:02.050Z,3.90
2024-02-23T17:33:31.993Z,3.90
2024-02-23T17:35:58.941Z,3.80
2024-02-23T17:38:25.857Z,3.80
2024-02-23T17:40:54.448Z,3.80
2024-02-23T17:43:24.163Z,3.70
2024-02-23T17:45:51.126Z,3.70
2024-02-23T17:48:18.091Z,3.60
2024-02-23T17:50:45.240Z,3.60
2024-02-23T17:53:12.325Z,3.60
2024-02-23T17:55:39.319Z,3.60
2024-02-23T17:58:12.600Z,3.50
2024-02-23T18:00:46.821Z,3.50
2024-02-23T18:03:13.815Z,3.40
2024-02-23T18:05:40.713Z,3.40
2024-02-23T18:08:09.125Z,3.30
2024-02-23T18:10:36.780Z,3.30
2024-02-23T18:13:04.023Z,3.30
2024-02-23T18:15:31.002Z,3.30
2024-02-23T18:17:58.198Z,3.30
2024-02-23T18:20:25.357Z,3.20
2024-02-23T18:22:52.312Z,3.20
2024-02-23T18:25:19.316Z,3.10
2024-02-23T18:27:46.318Z,3.10
2024-02-23T18:30:14.028Z,3.00
2024-02-23T18:32:42.076Z,3.00
2024-02-23T18:35:10.261Z,3.00
2024-02-23T18:37:37.625Z,2.90
2024-02-23T18:40:06.247Z,2.90
2024-02-23T18:42:33.185Z,2.80
2024-02-23T18:45:00.409Z,2.80
2024-02-23T18:47:27.455Z,2.80
2024-02-23T18:49:54.427Z,2.70
2024-02-23T18:52:21.349Z,2.80
2024-02-23T18:54:49.242Z,2.80
2024-02-23T18:57:16.252Z,2.90
2024-02-23T18:59:43.351Z,2.80
2024-02-23T19:02:10.321Z,2.90
2024-02-23T19:04:37.598Z,2.90
2024-02-23T19:07:04.769Z,3.00
2024-02-23T19:09:31.671Z,3.00
2024-02-23T19:11:58.901Z,3.10
2024-02-23T19:14:26.376Z,3.20
2024-02-23T19:16:53.478Z,3.20
2024-02-23T19:19:20.857Z,3.20
2024-02-23T19:21:47.866Z,3.20
2024-02-23T19:24:14.794Z,3.20
2024-02-23T19:26:43.370Z,3.20
2024-02-23T19:29:10.897Z,3.20
2024-02-23T19:31:38.001Z,3.20
2024-02-23T19:34:07.256Z,3.20
2024-02-23T19:36:34.463Z,3.20
2024-02-23T19:39:01.578Z,3.20
2024-02-23T19:41:28.647Z,3.20
2024-02-23T19:43:55.608Z,3.20
2024-02-23T19:46:23.135Z,3.20
2024-02-23T19:48:50.170Z,3.20
2024-02-23T19:51:17.905Z,3.20
2024-02-23T19:53:45.000Z,3.30
2024-02-23T19:56:13.907Z,3.40
2024-02-23T19:58:41.016Z,3.50
2024-02-23T20:01:08.028Z,3.60
2024-02-23T20:03:35.045Z,3.70
2024-02-23T20:06:02.137Z,3.80
2024-02-23T20:08:29.235Z,3.80
2024-02-23T20:10:56.420Z,4.00
2024-02-23T20:13:23.362Z,4.10
2024-02-23T20:15:53.700Z,4.10
2024-02-23T20:18:20.741Z,4.30
2024-02-23T20:20:48.023Z,4.20
2024-02-23T20:23:15.063Z,4.10
2024-02-23T20:25:45.090Z,4.10
2024-02-23T20:28:12.078Z,4.10
2024-02-23T20:30:39.141Z,4.10
2024-02-23T20:33:06.607Z,4.10
2024-02-23T20:35:34.400Z,4.10
2024-02-23T20:38:01.942Z,4.10
2024-02-23T20:40:29.240Z,4.10
2024-02-23T20:42:56.209Z,4.10
2024-02-23T20:45:23.226Z,4.10
2024-02-23T20:47:50.431Z,4.20
2024-02-23T20:50:17.626Z,4.20
2024-02-23T20:52:44.738Z,4.30
2024-02-23T20:55:11.850Z,4.30
2024-02-23T20:57:38.860Z,4.30
2024-02-23T21:00:06.973Z,4.30
2024-02-23T21:02:34.052Z,4.20
2024-02-23T21:05:01.078Z,4.10
2024-02-23T21:07:28.343Z,4.00
2024-02-23T21:09:55.340Z,3.80
2024-02-23T21:12:22.447Z,3.80
2024-02-23T21:14:51.797Z,3.80
2024-02-23T21:17:18.912Z,3.90
2024-02-23T21:19:47.584Z,3.90
2024-02-23T21:22:14.468Z,4.00
2024-02-23T21:24:45.910Z,4.00
2024-02-23T21:27:13.175Z,4.10
2024-02-23T21:29:40.188Z,4.10
2024-02-23T21:32:07.767Z,4.20
2024-02-23T21:34:34.809Z,4.20
2024-02-23T21:37:01.786Z,4.10
2024-02-23T21:39:29.483Z,4.10
2024-02-23T21:41:56.569Z,4.10
2024-02-23T21:44:23.695Z,4.00
2024-02-23T21:46:50.591Z,4.10
2024-02-23T21:49:17.679Z,4.00
2024-02-23T21:51:44.737Z,3.90
2024-02-23T21:54:11.646Z,3.90
2024-02-23T21:56:38.624Z,3.80
2024-02-23T21:59:05.595Z,3.80
2024-02-23T22:01:34.325Z,3.80
2024-02-23T22:04:01.341Z,3.70
2024-02-23T22:06:28.226Z,3.70
2024-02-23T22:08:55.138Z,3.60
2024-02-23T22:11:22.194Z,3.60
2024-02-23T22:13:52.143Z,3.60
2024-02-23T22:16:19.051Z,3.60
2024-02-23T22:18:46.058Z,3.60
2024-02-23T22:21:13.166Z,3.60
2024-02-23T22:23:40.311Z,3.60
2024-02-23T22:26:07.512Z,3.60
2024-02-23T22:28:34.407Z,3.60
2024-02-23T22:31:01.301Z,3.60
2024-02-23T22:33:28.519Z,3.60
2024-02-23T22:35:55.619Z,3.60
2024-02-23T22:38:22.695Z,3.70
2024-02-23T22:40:49.636Z,3.60
2024-02-23T22:43:16.674Z,3.70
2024-02-23T22:45:43.591Z,3.80
2024-02-23T22:48:10.600Z,3.90
2024-02-23T22:50:37.624Z,3.90
2024-02-23T22:53:06.217Z,4.00
2024-02-23T22:55:33.153Z,4.10
2024-02-23T22:58:03.152Z,4.10
2024-02-23T23:00:30.150Z,4.10
2024-02-23T23:02:57.079Z,4.20
2024-02-23T23:05:26.280Z,4.20
2024-02-23T23:07:53.379Z,4.30
2024-02-23T23:10:20.462Z,4.30
2024-02-23T23:12:47.552Z,4.40
2024-02-23T23:15:14.498Z,4.20
2024-02-23T23:17:41.495Z,4.20
2024-02-23T23:20:09.340Z,4.10
2024-02-23T23:22:36.555Z,4.00
2024-02-23T23:25:03.770Z,4.00
2024-02-23T23:27:30.705Z,3.90
2024-02-23T23:29:57.719Z,3.80
2024-02-23T23:32:24.778Z,3.80
2024-02-23T23:34:53.413Z,3.70
2024-02-23T23:37:20.529Z,3.70
2024-02-23T23:39:47.394Z,3.70
2024-02-23T23:42:14.443Z,3.70
2024-02-23T23:44:41.481Z,3.70
2024-02-23T23:47:08.559Z,3.70
2024-02-23T23:49:35.496Z,3.70
2024-02-23T23:52:04.923Z,3.70
2024-02-23T23:54:32.514Z,3.70
2024-02-23T23:56:59.840Z,3.80
2024-02-23T23:59:27.059Z,3.60
